Time;durP1;ratioP1;P1;durP2;ratioP2;P2;SDS_P1;SDS_P2;PMS_P1;PMS_P2;Temp;Humidity;BMP_temperature;BMP_pressure;BME280_temperature;BME280_humidity;BME280_pressure;Samples;Min_cycle;Max_cycle;Signal;HPM_P1;HPM_P2
2022/11/26 00:01:37;;;;;;;13.68;5.78;;;;;;;-15.69;69.21;99282.50;6198866;28;20053;-66
2022/11/26 00:04:42;;;;;;;10.32;5.32;;;;;;;-15.77;69.47;99281.03;6198879;28;20049;-66
2022/11/26 00:07:51;;;;;;;10.50;5.93;;;;;;;-15.76;69.68;99287.84;6198735;28;20046;-66
2022/11/26 00:10:58;;;;;;;15.70;7.18;;;;;;;-15.82;69.19;99297.44;6181634;28;20125;-66
2022/11/26 00:13:59;;;;;;;10.50;5.80;;;;;;;-15.82;68.82;99312.59;6180788;28;20433;-67
2022/11/26 00:17:02;;;;;;;9.35;5.47;;;;;;;-15.79;69.23;99317.88;6198522;28;20432;-67
2022/11/26 00:20:07;;;;;;;13.85;6.05;;;;;;;-15.81;68.78;99315.25;6198264;28;20537;-66
2022/11/26 00:23:19;;;;;;;10.23;4.60;;;;;;;-15.81;68.97;99309.31;6198324;28;20049;-67
2022/11/26 00:26:23;;;;;;;13.88;6.30;;;;;;;-15.87;68.88;99312.25;6197977;28;20058;-66
2022/11/26 00:29:27;;;;;;;22.10;8.23;;;;;;;-15.89;68.70;99322.22;6197313;28;20058;-66
2022/11/26 00:32:31;;;;;;;23.00;8.95;;;;;;;-15.98;68.65;99310.53;6198122;28;20042;-66
2022/11/26 00:35:35;;;;;;;18.20;6.90;;;;;;;-15.90;68.91;99325.50;6197159;28;20047;-68
2022/11/26 00:38:39;;;;;;;14.38;6.00;;;;;;;-15.87;69.44;99340.88;6197814;28;20077;-66
2022/11/26 00:41:40;;;;;;;18.60;8.65;;;;;;;-15.88;69.17;99329.03;6197768;28;20421;-67
2022/11/26 00:44:44;;;;;;;18.83;7.55;;;;;;;-15.99;69.17;99314.72;6196611;28;20058;-66
2022/11/26 00:47:45;;;;;;;14.23;7.00;;;;;;;-15.97;68.82;99328.28;6197774;28;20046;-66
2022/11/26 00:50:50;;;;;;;12.95;6.18;;;;;;;-16.05;68.67;99318.38;6197239;28;20567;-66
2022/11/26 00:53:58;;;;;;;9.02;5.18;;;;;;;-16.04;69.15;99325.19;6197236;28;20525;-67
2022/11/26 00:57:02;;;;;;;23.38;8.90;;;;;;;-16.16;68.78;99310.88;6196792;28;20129;-66
2022/11/26 01:00:14;;;;;;;27.08;10.35;;;;;;;-16.21;68.65;99326.41;6197567;28;20042;-66
2022/11/26 01:03:18;;;;;;;28.48;10.75;;;;;;;-16.19;68.54;99329.91;6197478;28;20050;-66
2022/11/26 01:06:30;;;;;;;22.17;9.35;;;;;;;-16.17;68.83;99338.47;6197321;28;20046;-66
2022/11/26 01:09:37;;;;;;;19.80;8.90;;;;;;;-16.21;68.03;99349.09;6197574;28;20504;-66
2022/11/26 01:12:38;;;;;;;21.88;8.73;;;;;;;-16.25;68.19;99347.06;6197309;28;20046;-66
2022/11/26 01:15:42;;;;;;;12.75;6.28;;;;;;;-16.27;67.92;99362.09;6196596;28;20046;-66
2022/11/26 01:18:44;;;;;;;17.58;7.53;;;;;;;-16.31;68.04;99368.50;6195843;28;20425;-66
2022/11/26 01:21:53;;;;;;;10.98;6.05;;;;;;;-16.36;68.33;99362.25;6197112;28;20042;-66
2022/11/26 01:24:59;;;;;;;19.75;6.60;;;;;;;-16.48;68.13;99356.19;6197277;28;20050;-66
2022/11/26 01:28:00;;;;;;;12.73;6.22;;;;;;;-16.44;67.82;99363.28;6179184;28;20619;-66
2022/11/26 01:31:01;;;;;;;13.43;6.20;;;;;;;-16.52;68.04;99364.28;6196688;28;21219;-66
2022/11/26 01:34:05;;;;;;;;;;;;;;;-16.50;67.49;99356.84;6197447;28;20047;-66
2022/11/26 01:37:15;;;;;;;12.98;4.75;;;;;;;-16.58;68.15;99354.59;6196909;28;19929;-67
2022/11/26 01:40:26;;;;;;;12.52;5.22;;;;;;;-16.63;68.21;99360.03;6196211;28;20088;-67
2022/11/26 01:43:40;;;;;;;13.70;5.75;;;;;;;-16.65;68.07;99375.00;6196275;28;20050;-67
2022/11/26 01:46:41;;;;;;;9.35;5.53;;;;;;;-16.76;68.22;99359.00;6196272;28;20057;-66
2022/11/26 01:50:21;;;;;;;5.30;2.90;;;;;;;-16.65;68.46;99386.72;6195482;28;20049;-66
2022/11/26 01:53:28;;;;;;;9.43;4.05;;;;;;;-16.63;68.63;99387.75;6195882;28;20571;-66
2022/11/26 01:56:47;;;;;;;14.15;6.95;;;;;;;-16.75;68.48;99385.09;6198317;28;20058;-67
2022/11/26 01:59:53;;;;;;;17.38;7.95;;;;;;;-16.82;68.21;99388.78;6201934;28;20045;-67
2022/11/26 02:02:59;;;;;;;18.58;7.38;;;;;;;-16.83;68.16;99392.06;6201671;28;20429;-67
2022/11/26 02:06:07;;;;;;;16.10;8.80;;;;;;;-16.89;68.11;99395.72;6201840;28;20081;-66
2022/11/26 02:09:10;;;;;;;23.10;7.60;;;;;;;-16.94;67.92;99385.25;6201656;28;20052;-67
2022/11/26 02:12:16;;;;;;;17.20;7.55;;;;;;;-16.97;67.88;99397.59;6201318;28;20042;-67
2022/11/26 02:15:24;;;;;;;24.33;9.73;;;;;;;-17.03;67.48;99387.91;6201217;28;20030;-67
2022/11/26 02:18:33;;;;;;;19.40;9.38;;;;;;;-17.05;67.49;99391.03;6201237;28;20220;-67
2022/11/26 02:21:36;;;;;;;21.85;9.55;;;;;;;-17.09;67.92;99396.59;6183198;28;20128;-66
2022/11/26 02:24:46;;;;;;;25.77;9.15;;;;;;;-17.06;67.59;99407.78;6199853;28;20406;-67
2022/11/26 02:27:47;;;;;;;19.27;8.73;;;;;;;-17.08;67.68;99418.50;6201142;28;20053;-67
2022/11/26 02:31:26;;;;;;;16.90;7.50;;;;;;;-17.11;67.83;99423.28;6201192;28;20038;-66
2022/11/26 02:34:47;;;;;;;17.90;7.25;;;;;;;-17.11;67.69;99420.75;6151692;28;20047;-67
2022/11/26 02:37:57;;;;;;;17.60;8.57;;;;;;;-17.09;67.67;99419.25;6200093;28;20053;-67
2022/11/26 02:40:59;;;;;;;11.32;5.43;;;;;;;-17.04;68.10;99425.53;6200927;28;20211;-66
2022/11/26 02:44:01;;;;;;;17.63;8.85;;;;;;;-16.97;67.99;99430.34;6200632;28;20157;-66
2022/11/26 02:47:10;;;;;;;18.90;8.25;;;;;;;-16.92;68.37;99421.53;6200861;28;20042;-67
2022/11/26 02:50:17;;;;;;;17.13;7.82;;;;;;;-16.81;68.21;99424.91;6199841;28;20058;-67
2022/11/26 02:53:24;;;;;;;22.95;8.55;;;;;;;-16.69;68.23;99430.06;6199859;28;20050;-66
2022/11/26 02:56:28;;;;;;;26.95;9.90;;;;;;;-16.58;68.27;99434.34;6200578;28;20054;-67
2022/11/26 02:59:30;;;;;;;28.65;11.43;;;;;;;-16.51;68.17;99434.06;6199803;28;20058;-66
2022/11/26 03:02:42;;;;;;;31.85;12.38;;;;;;;-16.45;68.22;99439.59;6199331;28;20054;-67
2022/11/26 03:05:47;;;;;;;25.02;10.50;;;;;;;-16.40;68.19;99445.91;6200150;28;20038;-67
2022/11/26 03:08:53;;;;;;;24.85;8.77;;;;;;;-16.45;67.95;99429.53;6198820;28;20058;-67
2022/11/26 03:11:56;;;;;;;18.77;9.38;;;;;;;-16.39;68.03;99440.09;6200192;28;20046;-66
2022/11/26 03:15:02;;;;;;;19.77;8.80;;;;;;;-16.39;68.02;99446.78;6199451;28;20513;-65
2022/11/26 03:18:07;;;;;;;22.50;8.65;;;;;;;-16.37;68.09;99446.16;6198985;28;20077;-66
2022/11/26 03:21:09;;;;;;;18.80;7.57;;;;;;;-16.34;68.26;99456.47;6199346;28;20062;-66
2022/11/26 03:24:10;;;;;;;17.67;8.77;;;;;;;-16.34;68.00;99455.59;6199266;28;20050;-67
2022/11/26 03:27:14;;;;;;;26.63;9.80;;;;;;;-16.37;67.99;99450.31;6200056;28;20506;-66
2022/11/26 03:30:18;;;;;;;20.38;8.57;;;;;;;-16.31;68.22;99451.69;6199478;28;20038;-67
2022/11/26 03:33:22;;;;;;;19.48;8.57;;;;;;;-16.29;68.49;99454.34;6199638;28;20433;-67
2022/11/26 03:36:26;;;;;;;18.17;8.93;;;;;;;-16.22;68.26;99455.72;6199050;28;20410;-68
2022/11/26 03:39:28;;;;;;;20.80;8.63;;;;;;;-16.15;68.65;99463.03;6181144;28;20050;-67
2022/11/26 03:42:32;;;;;;;18.85;8.52;;;;;;;-16.08;68.90;99467.78;6199365;28;20134;-67
2022/11/26 03:45:33;;;;;;;23.85;10.25;;;;;;;-16.03;68.65;99464.00;6198381;28;20055;-67
2022/11/26 03:48:40;;;;;;;17.02;7.55;;;;;;;-15.97;68.65;99459.44;6199319;28;20046;-67
2022/11/26 03:51:44;;;;;;;7.68;4.88;;;;;;;-15.88;68.90;99465.25;6198165;28;20100;-67
2022/11/26 03:54:50;;;;;;;15.52;6.38;;;;;;;-15.83;69.12;99464.72;6198615;28;20061;-67
2022/11/26 03:57:56;;;;;;;8.73;4.88;;;;;;;-15.75;69.29;99466.22;6199110;28;20046;-66
2022/11/26 04:00:58;;;;;;;23.52;8.60;;;;;;;-15.71;69.28;99468.19;6198121;28;20047;-67
2022/11/26 04:04:02;;;;;;;16.35;7.38;;;;;;;-15.67;69.12;99467.66;6198137;28;20429;-67
2022/11/26 04:07:06;;;;;;;16.92;6.72;;;;;;;-15.61;69.43;99470.66;6198588;28;20046;-67
2022/11/26 04:10:08;;;;;;;18.92;7.30;;;;;;;-15.56;69.48;99476.97;6198120;28;20065;-67
2022/11/26 04:13:11;;;;;;;8.18;4.05;;;;;;;-15.48;69.49;99477.53;6198885;28;20050;-67
2022/11/26 04:16:12;;;;;;;13.85;7.45;;;;;;;-15.48;69.36;99478.44;6197694;28;20050;-67
2022/11/26 04:19:17;;;;;;;12.40;5.63;;;;;;;-15.54;69.19;99477.94;6196603;28;20042;-67
2022/11/26 04:22:18;;;;;;;14.77;6.72;;;;;;;-15.56;69.22;99483.66;6197561;28;20417;-67
2022/11/26 04:25:19;;;;;;;10.23;3.60;;;;;;;-15.51;69.52;99487.41;6197626;28;20061;-67
2022/11/26 04:28:21;;;;;;;11.38;4.72;;;;;;;-15.50;69.42;99485.00;6197557;28;20047;-68
2022/11/26 04:31:23;;;;;;;9.88;6.38;;;;;;;-15.48;69.35;99493.59;6197339;28;20054;-67
2022/11/26 04:34:26;;;;;;;11.05;5.75;;;;;;;-15.42;69.62;99499.13;6197338;28;20425;-67
2022/11/26 04:37:30;;;;;;;12.50;4.68;;;;;;;-15.38;69.70;99496.06;6197323;28;20429;-67
2022/11/26 04:40:32;;;;;;;15.07;5.82;;;;;;;-15.33;69.45;99493.91;6197197;28;20050;-67
2022/11/26 04:43:36;;;;;;;10.23;4.88;;;;;;;-15.27;69.47;99498.56;6197614;28;20050;-67
2022/11/26 04:46:37;;;;;;;8.73;4.80;;;;;;;-15.26;69.08;99495.25;6197257;28;20053;-67
2022/11/26 04:49:42;;;;;;;9.20;4.50;;;;;;;-15.20;69.39;99500.78;6197114;28;20049;-67
2022/11/26 04:52:43;;;;;;;11.15;5.30;;;;;;;-15.13;69.33;99497.09;6196843;28;20046;-67
2022/11/26 04:55:48;;;;;;;;;;;;;;;-14.95;68.93;99494.31;6197203;28;20055;-67
2022/11/26 04:58:50;;;;;;;7.45;4.55;;;;;;;-14.78;69.49;99492.22;6196929;28;19925;-67
2022/11/26 05:01:51;;;;;;;6.75;3.97;;;;;;;-14.91;69.46;99441.53;6196811;28;20049;-67
2022/11/26 05:04:53;;;;;;;6.50;3.20;;;;;;;-14.41;69.62;99484.84;6196551;28;20058;-67
2022/11/26 05:07:55;;;;;;;13.02;6.32;;;;;;;-14.22;69.66;99490.50;6196745;28;20185;-66
2022/11/26 05:10:57;;;;;;;14.43;5.55;;;;;;;-14.12;69.60;99499.66;6195989;28;20133;-67
2022/11/26 05:13:59;;;;;;;6.32;3.97;;;;;;;-13.97;69.87;99505.81;6196569;28;20050;-67
2022/11/26 05:17:03;;;;;;;8.27;4.10;;;;;;;-13.81;69.73;99512.91;6196855;28;20061;-67
2022/11/26 05:20:07;;;;;;;7.85;3.63;;;;;;;-13.77;69.74;99519.94;6197159;28;20061;-68
2022/11/26 05:23:11;;;;;;;13.40;6.05;;;;;;;-13.69;69.67;99526.44;6196238;28;20544;-67
2022/11/26 05:26:14;;;;;;;13.52;6.40;;;;;;;-13.65;69.25;99518.28;6197094;28;20042;-67
2022/11/26 05:29:18;;;;;;;;;;;;;;;-13.50;69.10;99508.38;6196815;28;20425;-68
2022/11/26 05:32:20;;;;;;;6.85;4.03;;;;;;;-13.45;69.75;99504.50;6196095;28;19928;-67
2022/11/26 05:35:23;;;;;;;;;;;;;;;-13.28;69.40;99517.50;6197267;28;20042;-67
2022/11/26 05:38:25;;;;;;;12.05;8.30;;;;;;;-13.18;70.10;99507.22;6196050;28;19921;-67
2022/11/26 05:41:30;;;;;;;25.80;9.95;;;;;;;-13.11;69.60;99502.66;6195925;28;20050;-67
2022/11/26 05:44:34;;;;;;;19.35;7.13;;;;;;;-13.10;69.49;99503.56;6196453;28;20412;-67
2022/11/26 05:47:40;;;;;;;28.30;10.73;;;;;;;-13.14;69.49;99507.50;6196790;28;20046;-66
2022/11/26 05:50:41;;;;;;;;;;;;;;;-13.12;69.27;99511.03;6196367;28;20476;-66
2022/11/26 05:53:42;;;;;;;38.97;15.10;;;;;;;-13.18;69.35;99518.22;6195753;28;20384;-67
2022/11/26 05:56:44;;;;;;;21.08;9.88;;;;;;;-13.14;69.86;99517.66;6196242;28;20046;-67
2022/11/26 05:59:48;;;;;;;27.38;10.77;;;;;;;-13.02;69.91;99537.03;6195880;28;20046;-67
2022/11/26 06:02:49;;;;;;;30.05;14.02;;;;;;;-12.98;69.32;99541.56;6195768;28;20057;-67
2022/11/26 06:05:51;;;;;;;25.55;10.73;;;;;;;-12.95;69.34;99545.19;6195865;28;20061;-67
2022/11/26 06:08:55;;;;;;;34.15;12.30;;;;;;;-12.87;69.63;99553.31;6196457;28;20046;-67
2022/11/26 06:11:59;;;;;;;34.70;12.95;;;;;;;-12.71;69.36;99545.09;6195830;28;20056;-68
2022/11/26 06:15:03;;;;;;;41.47;14.40;;;;;;;-12.50;69.73;99546.59;6196456;28;20046;-68
2022/11/26 06:18:05;;;;;;;26.50;9.60;;;;;;;-12.30;69.39;99547.06;6195597;28;20433;-68
2022/11/26 06:21:09;;;;;;;21.27;9.32;;;;;;;-12.04;69.10;99554.75;6195876;28;20061;-68
2022/11/26 06:24:16;;;;;;;38.95;13.15;;;;;;;-11.78;69.11;99558.13;6196625;28;20050;-67
2022/11/26 06:27:22;;;;;;;25.35;11.75;;;;;;;-11.63;68.89;99558.22;6196224;28;20042;-68
2022/11/26 06:30:23;;;;;;;33.58;14.18;;;;;;;-11.56;68.86;99560.41;6195003;28;20055;-68
2022/11/26 06:33:25;;;;;;;32.25;14.15;;;;;;;-11.23;69.02;99558.28;6195814;28;20537;-68
2022/11/26 06:36:26;;;;;;;43.03;18.58;;;;;;;-10.77;68.43;99561.16;6195545;28;20054;-67
2022/11/26 06:39:30;;;;;;;37.97;16.20;;;;;;;-10.32;68.51;99568.19;6195713;28;20061;-68
2022/11/26 06:42:34;;;;;;;42.58;16.80;;;;;;;-9.99;67.97;99561.66;6195371;28;20073;-66
2022/11/26 06:45:40;;;;;;;61.63;21.27;;;;;;;-10.21;67.68;99507.69;6200730;28;20058;-67
2022/11/26 06:48:43;;;;;;;41.47;18.42;;;;;;;-9.77;67.72;99578.19;6200356;28;20077;-67
2022/11/26 06:51:48;;;;;;;49.42;18.63;;;;;;;-9.84;67.29;99582.03;6199466;28;20066;-67
2022/11/26 06:54:52;;;;;;;42.70;17.17;;;;;;;-9.91;68.06;99576.50;6200738;28;20038;-67
2022/11/26 06:57:53;;;;;;;;;;;;;;;-9.88;67.98;99581.75;6200737;28;20042;-67
2022/11/26 07:01:06;;;;;;;36.67;13.60;;;;;;;-10.01;68.77;99578.50;6199283;28;19921;-68
2022/11/26 07:04:09;;;;;;;29.67;12.60;;;;;;;-10.04;69.15;99583.41;6199764;28;20054;-67
2022/11/26 07:07:13;;;;;;;40.20;15.93;;;;;;;-10.10;69.25;99577.97;6200099;28;20073;-66
2022/11/26 07:10:19;;;;;;;40.70;14.93;;;;;;;-10.60;69.28;99519.81;6199902;28;20495;-67
2022/11/26 07:13:26;;;;;;;43.08;15.32;;;;;;;-10.26;69.34;99586.34;6199328;28;20058;-68
2022/11/26 07:16:33;;;;;;;40.13;15.15;;;;;;;-10.28;69.63;99576.88;6199657;28;20124;-67
2022/11/26 07:19:39;;;;;;;39.88;15.93;;;;;;;-10.22;69.31;99579.75;6199694;28;20046;-68
2022/11/26 07:22:41;;;;;;;41.15;18.05;;;;;;;-10.12;69.45;99592.25;6199503;28;20421;-67
2022/11/26 07:25:42;;;;;;;48.38;17.88;;;;;;;-10.05;69.49;99576.53;6199724;28;20405;-67
2022/11/26 07:28:46;;;;;;;53.72;19.35;;;;;;;-9.92;69.49;99595.13;6199603;28;20502;-67
2022/11/26 07:31:48;;;;;;;39.80;16.02;;;;;;;-9.96;68.72;99587.31;6199181;28;20038;-67
2022/11/26 07:34:51;;;;;;;46.22;17.75;;;;;;;-9.76;69.17;99597.78;6198619;28;20047;-67
2022/11/26 07:37:55;;;;;;;45.65;17.92;;;;;;;-9.61;68.84;99608.88;6182326;28;20056;-67
2022/11/26 07:41:04;;;;;;;44.35;17.45;;;;;;;-9.53;68.64;99605.09;6199253;28;20038;-66
2022/11/26 07:44:11;;;;;;;47.17;19.85;;;;;;;-9.43;68.72;99610.72;6199242;28;20054;-67
2022/11/26 07:47:13;;;;;;;37.42;16.33;;;;;;;-9.30;68.54;99613.19;6198372;28;20058;-67
2022/11/26 07:50:15;;;;;;;48.95;21.05;;;;;;;-9.22;68.44;99617.06;6199086;28;20085;-67
2022/11/26 07:53:19;;;;;;;49.80;18.70;;;;;;;-9.19;67.98;99601.94;6198598;28;20524;-67
2022/11/26 07:56:20;;;;;;;43.28;17.05;;;;;;;-9.14;67.88;99605.63;6198887;28;20532;-68
2022/11/26 07:59:22;;;;;;;38.05;15.05;;;;;;;-9.21;68.30;99606.06;6198103;28;20517;-67
2022/11/26 08:02:23;;;;;;;41.83;19.60;;;;;;;-9.13;68.34;99604.81;6198319;28;20129;-68
2022/11/26 08:05:24;;;;;;;24.65;12.70;;;;;;;-9.11;68.15;99600.69;6197657;28;20050;-67
2022/11/26 08:08:29;;;;;;;26.55;11.70;;;;;;;-9.25;67.92;99604.16;6198811;28;20132;-67
2022/11/26 08:11:32;;;;;;;21.98;10.02;;;;;;;-9.33;68.30;99605.38;6197995;28;20054;-67
2022/11/26 08:14:35;;;;;;;14.68;7.10;;;;;;;-9.37;68.77;99600.88;6198697;28;20042;-68
2022/11/26 08:17:36;;;;;;;12.30;6.00;;;;;;;-9.47;68.86;99601.16;6197501;28;20144;-67
2022/11/26 08:20:40;;;;;;;17.00;7.18;;;;;;;-9.55;68.95;99600.69;6198362;28;20085;-67
2022/11/26 08:23:44;;;;;;;17.80;8.15;;;;;;;-9.66;68.99;99607.72;6197177;28;20043;-66
2022/11/26 08:26:50;;;;;;;15.30;6.65;;;;;;;-9.62;69.15;99606.22;6198019;28;20429;-68
2022/11/26 08:29:52;;;;;;;14.35;8.02;;;;;;;-9.49;68.76;99613.78;6197421;28;20069;-68
2022/11/26 08:32:53;;;;;;;17.50;7.28;;;;;;;-9.19;68.76;99616.38;6197352;28;20043;-66
2022/11/26 08:35:58;;;;;;;14.10;7.53;;;;;;;-8.78;67.79;99615.25;6180395;28;20181;-68
2022/11/26 08:38:59;;;;;;;15.68;6.45;;;;;;;-8.46;67.07;99609.38;6197490;28;20441;-67
2022/11/26 08:42:01;;;;;;;11.60;5.53;;;;;;;-8.08;66.53;99610.47;6197366;28;20042;-67
2022/11/26 08:45:02;;;;;;;16.08;7.72;;;;;;;-7.90;65.93;99613.97;6197962;28;20047;-68
2022/11/26 08:48:05;;;;;;;12.43;6.60;;;;;;;-8.21;65.98;99612.41;6197123;28;20053;-68
2022/11/26 08:51:11;;;;;;;13.75;6.25;;;;;;;-8.56;66.32;99624.97;6197562;28;20038;-67
2022/11/26 08:54:14;;;;;;;14.38;6.60;;;;;;;-8.93;66.94;99615.28;6197556;28;20049;-67
2022/11/26 08:57:16;;;;;;;13.88;6.10;;;;;;;-9.11;67.75;99625.34;6196887;28;20388;-66
2022/11/26 09:00:17;;;;;;;13.95;6.18;;;;;;;-9.19;67.83;99644.41;6196807;28;20046;-67
2022/11/26 09:03:24;;;;;;;14.82;7.28;;;;;;;-9.08;68.00;99645.91;6197468;28;20042;-68
2022/11/26 09:06:32;;;;;;;9.35;5.60;;;;;;;-8.99;67.76;99645.56;6197069;28;20057;-67
2022/11/26 09:09:36;;;;;;;13.90;6.32;;;;;;;-9.01;67.70;99653.09;6197405;28;20047;-67
2022/11/26 09:12:38;;;;;;;12.48;5.95;;;;;;;-9.05;67.82;99646.09;6196852;28;20057;-67
2022/11/26 09:15:39;;;;;;;10.23;5.30;;;;;;;-9.11;67.50;99640.63;6196986;28;20532;-67
2022/11/26 09:18:42;;;;;;;13.70;7.07;;;;;;;-9.28;67.80;99647.31;6196891;28;20446;-69
2022/11/26 09:21:46;;;;;;;16.50;7.10;;;;;;;-9.37;67.76;99646.75;6179526;28;20145;-67
2022/11/26 09:24:51;;;;;;;16.58;7.53;;;;;;;-9.44;68.03;99634.47;6196926;28;20046;-67
2022/11/26 09:27:52;;;;;;;17.10;8.02;;;;;;;-9.57;68.43;99636.28;6196960;28;20035;-67
2022/11/26 09:30:57;;;;;;;18.45;8.10;;;;;;;-9.69;68.14;99638.13;6196423;28;20528;-67
2022/11/26 09:34:00;;;;;;;16.20;8.30;;;;;;;-9.71;68.34;99629.50;6196464;28;20505;-68
2022/11/26 09:37:04;;;;;;;24.63;10.10;;;;;;;-9.78;68.00;99632.47;6196883;28;20042;-67
2022/11/26 09:40:10;;;;;;;;;;;;;;;-9.77;67.44;99624.91;6197049;28;20058;-67
2022/11/26 09:43:31;;;;;;;10.00;5.85;;;;;;;-10.14;68.54;99626.94;6195819;28;20411;-67
2022/11/26 09:46:46;;;;;;;16.15;6.78;;;;;;;-10.23;68.86;99622.16;6179418;28;20046;-67
2022/11/26 09:49:59;;;;;;;13.45;6.07;;;;;;;-10.25;69.12;99623.72;6195846;28;20050;-67
2022/11/26 09:53:16;;;;;;;19.60;7.97;;;;;;;-10.23;69.12;99621.28;6196017;28;20117;-67
2022/11/26 09:56:24;;;;;;;13.40;7.32;;;;;;;-10.19;69.25;99619.03;6196679;28;20074;-67
2022/11/26 09:59:28;;;;;;;14.93;6.43;;;;;;;-10.29;68.97;99616.72;6195840;28;20560;-67
2022/11/26 10:02:30;;;;;;;12.52;6.70;;;;;;;-10.26;69.20;99626.19;6195975;28;20532;-68
2022/11/26 10:05:47;;;;;;;16.05;6.88;;;;;;;-10.33;69.18;99639.34;6196392;28;20050;-67
2022/11/26 10:09:00;;;;;;;16.67;6.90;;;;;;;-10.51;69.32;99639.97;6196166;28;20050;-68
2022/11/26 10:12:07;;;;;;;16.48;7.57;;;;;;;-10.67;69.47;99649.97;6178511;28;20433;-68
2022/11/26 10:15:17;;;;;;;15.25;7.32;;;;;;;-10.79;69.14;99649.22;6196350;28;20038;-66
2022/11/26 10:18:21;;;;;;;14.95;7.18;;;;;;;-10.99;69.05;99653.03;6197251;28;20061;-68
2022/11/26 10:21:39;;;;;;;17.63;6.72;;;;;;;-11.12;69.54;99651.38;6201551;28;20093;-67
2022/11/26 10:24:44;;;;;;;11.18;6.57;;;;;;;-11.39;69.19;99640.25;6200371;28;20050;-67
2022/11/26 10:27:49;;;;;;;11.18;6.43;;;;;;;-11.47;69.97;99637.22;6201124;28;20038;-68
2022/11/26 10:31:09;;;;;;;12.60;7.18;;;;;;;-11.74;69.82;99622.72;6200719;28;20046;-67
2022/11/26 10:34:38;;;;;;;14.93;6.80;;;;;;;-11.66;70.21;99644.38;6200740;28;20042;-67
2022/11/26 10:37:39;;;;;;;13.15;6.65;;;;;;;-11.66;70.07;99641.84;6200848;28;20042;-68
2022/11/26 10:40:46;;;;;;;12.25;6.65;;;;;;;-11.64;70.10;99638.63;6199694;28;20042;-67
2022/11/26 10:43:53;;;;;;;12.23;5.93;;;;;;;-11.67;70.28;99632.47;6200776;28;20667;-68
2022/11/26 10:46:55;;;;;;;13.43;6.55;;;;;;;-11.76;70.27;99633.63;6199866;28;20476;-67
2022/11/26 10:50:22;;;;;;;15.27;5.70;;;;;;;-11.77;70.22;99626.78;6200038;28;20049;-67
2022/11/26 10:53:31;;;;;;;14.75;7.40;;;;;;;-11.87;70.17;99637.13;6182612;28;20034;-67
2022/11/26 10:56:40;;;;;;;14.55;6.85;;;;;;;-12.13;70.44;99635.38;6200020;28;20042;-67
2022/11/26 10:59:50;;;;;;;14.75;6.57;;;;;;;-12.22;70.82;99634.75;6200149;28;20046;-67
2022/11/26 11:02:59;;;;;;;12.35;5.93;;;;;;;-12.33;70.89;99626.41;6199183;28;20054;-67
2022/11/26 11:06:18;;;;;;;10.73;5.95;;;;;;;-12.40;70.89;99628.41;6181865;28;20065;-67
2022/11/26 11:09:34;;;;;;;10.73;5.13;;;;;;;-12.52;71.19;99618.28;6199313;28;20051;-67
2022/11/26 11:12:46;;;;;;;16.77;7.28;;;;;;;-12.65;71.00;99616.56;6200133;28;20497;-67
2022/11/26 11:16:00;;;;;;;11.10;5.20;;;;;;;-12.73;71.19;99623.63;6199726;28;20429;-67
2022/11/26 11:19:05;;;;;;;16.15;7.32;;;;;;;-12.87;71.29;99624.31;6199977;28;20042;-67
2022/11/26 11:22:20;;;;;;;7.20;5.13;;;;;;;-12.97;71.67;99629.47;6199458;28;20054;-67
2022/11/26 11:25:29;;;;;;;7.40;4.13;;;;;;;-13.07;71.46;99629.63;6199857;28;20050;-67
2022/11/26 11:28:34;;;;;;;17.55;7.05;;;;;;;-13.13;71.91;99630.06;6198507;28;20046;-67
2022/11/26 11:31:47;;;;;;;10.40;5.60;;;;;;;-13.17;72.01;99630.59;6198165;28;20560;-68
2022/11/26 11:34:51;;;;;;;14.13;7.03;;;;;;;-13.34;71.38;99619.25;6198357;28;20578;-68
2022/11/26 11:37:57;;;;;;;10.70;5.22;;;;;;;-13.27;72.15;99626.56;6199630;28;20066;-68
2022/11/26 11:41:03;;;;;;;10.32;4.20;;;;;;;-13.37;71.73;99636.78;6198298;28;20046;-68
2022/11/26 11:44:09;;;;;;;9.82;5.88;;;;;;;-13.47;71.60;99646.97;6199052;28;20412;-68
2022/11/26 11:47:45;;;;;;;15.93;6.05;;;;;;;-13.49;71.89;99651.09;6199484;28;20050;-67
2022/11/26 11:51:12;;;;;;;14.40;6.05;;;;;;;-13.47;72.13;99657.13;6199866;28;20054;-68
2022/11/26 11:54:27;;;;;;;18.30;7.10;;;;;;;-13.45;72.24;99653.06;6198580;28;20050;-67
2022/11/26 11:57:43;;;;;;;19.98;7.05;;;;;;;-13.45;71.78;99663.19;6198695;28;20058;-66
2022/11/26 12:01:08;;;;;;;11.73;5.10;;;;;;;-13.38;71.57;99662.88;6198237;28;20054;-68
2022/11/26 12:04:20;;;;;;;11.10;5.90;;;;;;;-13.37;71.81;99659.56;6198089;28;20403;-68
2022/11/26 12:07:46;;;;;;;11.68;6.18;;;;;;;-13.36;71.70;99662.22;6198604;28;20045;-69
2022/11/26 12:10:52;;;;;;;15.95;5.93;;;;;;;-13.30;72.01;99656.72;6198181;28;20429;-68
2022/11/26 12:14:06;;;;;;;18.33;6.95;;;;;;;-13.35;71.61;99643.72;6198562;28;20057;-67
2022/11/26 12:17:17;;;;;;;19.65;9.10;;;;;;;-13.45;71.66;99641.25;6198422;28;20054;-67
2022/11/26 12:20:43;;;;;;;12.40;5.85;;;;;;;-13.60;71.47;99635.09;6198645;28;20050;-68
2022/11/26 12:23:52;;;;;;;12.40;5.73;;;;;;;-13.66;72.17;99640.56;6197139;28;20089;-68
2022/11/26 12:27:09;;;;;;;10.27;5.50;;;;;;;-13.74;72.24;99621.41;6197637;28;20906;-67
2022/11/26 12:30:28;;;;;;;10.07;6.63;;;;;;;-13.70;71.90;99653.78;6198200;28;20421;-68
2022/11/26 12:33:40;;;;;;;15.32;6.40;;;;;;;-13.71;72.25;99657.06;6197420;28;20065;-68
2022/11/26 12:36:52;;;;;;;15.23;6.45;;;;;;;-13.69;71.91;99655.53;6180181;28;20509;-70
2022/11/26 12:40:22;;;;;;;13.10;6.85;;;;;;;-13.82;72.09;99665.50;6196219;28;20050;-67
2022/11/26 12:43:47;;;;;;;12.88;6.68;;;;;;;-13.93;71.95;99634.31;6198097;28;20046;-67
2022/11/26 12:47:06;;;;;;;18.05;7.93;;;;;;;-14.00;72.09;99636.31;6197197;28;20061;-68
2022/11/26 12:50:38;;;;;;;24.45;7.63;;;;;;;-13.95;71.92;99629.91;6197246;28;20046;-67
2022/11/26 12:54:00;;;;;;;11.07;6.80;;;;;;;-14.15;72.36;99626.78;6197107;28;20492;-68
2022/11/26 12:57:22;;;;;;;16.75;5.85;;;;;;;-14.27;72.58;99625.84;6197056;28;20505;-67
2022/11/26 13:00:30;;;;;;;13.77;5.75;;;;;;;-14.20;73.02;99632.25;6196596;28;20433;-68
2022/11/26 13:03:32;;;;;;;6.80;4.32;;;;;;;-14.14;72.50;99638.66;6196880;28;20076;-68
2022/11/26 13:06:58;;;;;;;13.88;5.47;;;;;;;-14.11;72.23;99643.94;6196520;28;20428;-67
2022/11/26 13:10:33;;;;;;;9.52;4.55;;;;;;;-14.11;72.42;99638.00;6197092;28;20058;-67
2022/11/26 13:13:49;;;;;;;13.95;6.18;;;;;;;-14.12;72.34;99634.59;6196783;28;20050;-67
2022/11/26 13:16:58;;;;;;;14.10;6.80;;;;;;;-14.16;72.54;99639.31;6196405;28;20050;-67
2022/11/26 13:20:15;;;;;;;11.07;5.82;;;;;;;-14.20;72.47;99640.72;6196745;28;20200;-67
2022/11/26 13:23:34;;;;;;;18.08;8.82;;;;;;;-14.16;72.31;99637.66;6196737;28;20090;-67
2022/11/26 13:26:37;;;;;;;11.73;6.30;;;;;;;-14.15;72.45;99646.13;6197205;28;20046;-67
2022/11/26 13:30:03;;;;;;;15.57;7.60;;;;;;;-14.17;72.21;99643.50;6196487;28;20064;-67
2022/11/26 13:33:23;;;;;;;17.17;7.47;;;;;;;-14.16;72.26;99632.59;6196174;28;20065;-68
2022/11/26 13:36:37;;;;;;;16.33;7.57;;;;;;;-14.12;72.56;99636.25;6196194;28;20046;-67
2022/11/26 13:40:04;;;;;;;17.27;7.75;;;;;;;-14.11;72.19;99633.84;6196501;28;20059;-68
2022/11/26 13:43:20;;;;;;;15.50;7.85;;;;;;;-14.08;72.30;99639.13;6196452;28;20061;-68
2022/11/26 13:46:30;;;;;;;17.75;8.38;;;;;;;-14.07;72.32;99645.06;6196714;28;20533;-68
2022/11/26 13:49:55;;;;;;;15.75;8.10;;;;;;;-14.09;72.33;99652.53;6196510;28;20058;-67
2022/11/26 13:53:10;;;;;;;13.18;6.32;;;;;;;-14.08;72.23;99650.91;6199090;28;20054;-67
2022/11/26 13:56:12;;;;;;;19.83;8.48;;;;;;;-14.12;72.37;99639.66;6201118;28;20089;-67
2022/11/26 13:59:22;;;;;;;15.15;7.25;;;;;;;-14.09;72.30;99641.56;6201757;28;20038;-67
2022/11/26 14:02:32;;;;;;;19.35;7.63;;;;;;;-14.08;72.74;99639.13;6201690;28;20065;-67
2022/11/26 14:05:48;;;;;;;15.85;8.10;;;;;;;-14.06;72.58;99637.59;6200596;28;20054;-67
2022/11/26 14:08:52;;;;;;;18.00;8.23;;;;;;;-14.15;72.22;99621.72;6200368;28;20054;-67
2022/11/26 14:11:56;;;;;;;12.18;6.03;;;;;;;-14.16;72.33;99627.53;6201498;28;20046;-67
2022/11/26 14:15:01;;;;;;;15.73;7.35;;;;;;;-14.09;72.59;99641.56;6200755;28;20046;-68
2022/11/26 14:18:04;;;;;;;13.63;7.00;;;;;;;-14.07;72.05;99642.53;6201128;28;20056;-67
2022/11/26 14:21:11;;;;;;;;;;;;;;;-13.96;71.91;99643.34;6201848;28;20052;-67
2022/11/26 14:24:32;;;;;;;;;;;;;;;-13.94;71.92;99641.81;6200810;28;19922;-67